Time;durP1;ratioP1;P1;durP2;ratioP2;P2;SDS_P1;SDS_P2;PMS_P1;PMS_P2;Temp;Humidity;BMP_temperature;BMP_pressure;BME280_temperature;BME280_humidity;BME280_pressure;Samples;Min_cycle;Max_cycle;Signal;HPM_P1;HPM_P2
2022/12/15 00:40:07;;;;;;;21.33;14.35;;;;;;;1.69;79.18;94034.72;5047768;28;20040;-72
2022/12/15 00:42:32;;;;;;;25.75;14.48;;;;;;;1.67;78.80;94050.19;5046881;28;20043;-72
2022/12/15 00:44:58;;;;;;;21.38;13.70;;;;;;;1.72;78.70;94037.09;5048314;28;20037;-72
2022/12/15 00:47:24;;;;;;;22.52;14.27;;;;;;;1.63;78.76;94020.53;5047565;28;20047;-72
2022/12/15 01:22:40;;;;;;;16.00;9.35;;;;;;;1.53;79.08;93960.56;5030616;28;20567;-72
2022/12/15 01:25:06;;;;;;;14.55;10.00;;;;;;;1.58;79.11;93963.66;5025058;28;20441;-72
2022/12/15 01:27:31;;;;;;;12.77;9.27;;;;;;;1.60;79.28;93954.16;5013977;28;20422;-72
2022/12/15 01:29:57;;;;;;;14.55;9.95;;;;;;;1.64;78.96;93936.88;5024241;28;20094;-72
2022/12/15 01:32:22;;;;;;;13.02;8.57;;;;;;;1.58;79.10;93943.19;5051430;28;20033;-72
2022/12/15 01:34:47;;;;;;;13.02;8.95;;;;;;;1.56;78.85;93935.63;5050690;28;20044;-72
2022/12/15 01:37:13;;;;;;;11.13;7.97;;;;;;;1.59;78.98;93931.19;5034969;28;20393;-72
2022/12/15 01:42:24;;;;;;;9.50;6.38;;;;;;;1.53;79.06;93951.16;5048294;28;20041;-72
2022/12/15 01:44:50;;;;;;;11.95;7.70;;;;;;;1.68;78.98;93951.13;5016221;28;20121;-72
2022/12/15 01:47:16;;;;;;;18.92;12.35;;;;;;;1.63;78.92;93935.22;5047793;28;20037;-72
2022/12/15 01:49:41;;;;;;;19.15;12.20;;;;;;;1.63;79.16;93928.38;5017274;28;20033;-72
2022/12/15 01:52:07;;;;;;;24.05;16.10;;;;;;;1.55;79.23;93922.91;5022585;28;20484;-69
2022/12/15 01:54:36;;;;;;;21.83;15.55;;;;;;;1.60;79.48;93933.69;5013705;28;20080;-72
2022/12/15 01:57:03;;;;;;;24.92;16.52;;;;;;;1.54;80.06;93921.25;5037731;28;20072;-72
2022/12/15 01:59:34;;;;;;;29.65;18.05;;;;;;;1.55;79.98;93928.03;5023637;28;20029;-70
2022/12/15 02:01:59;;;;;;;28.40;15.65;;;;;;;1.60;79.76;93902.16;5047457;28;20720;-71
2022/12/15 02:04:25;;;;;;;22.95;14.70;;;;;;;1.61;79.47;93902.03;5010054;28;20111;-70
2022/12/15 02:06:51;;;;;;;41.38;25.75;;;;;;;1.49;79.80;93908.75;5038682;28;20044;-71
2022/12/15 02:09:17;;;;;;;40.95;26.02;;;;;;;1.51;80.16;93911.22;5033298;28;20025;-71
2022/12/15 02:11:54;;;;;;;27.42;17.33;;;;;;;1.32;80.62;93861.16;5038839;28;20026;-70
2022/12/15 02:14:26;;;;;;;25.27;15.57;;;;;;;1.22;81.07;93885.66;5029812;28;20040;-70
2022/12/15 02:16:54;;;;;;;22.00;13.45;;;;;;;1.35;80.62;93870.38;5013657;28;20037;-70
2022/12/15 02:19:28;;;;;;;19.10;12.35;;;;;;;1.41;80.43;93864.88;5029582;28;20041;-71
2022/12/15 02:22:18;;;;;;;17.60;11.68;;;;;;;1.44;80.97;93879.22;5030819;28;20488;-71
2022/12/15 02:24:52;;;;;;;18.52;12.18;;;;;;;1.37;81.18;93842.97;5048563;28;20036;-70
2022/12/15 02:27:33;;;;;;;20.38;12.68;;;;;;;1.42;80.19;93840.09;5039498;28;20038;-70
2022/12/15 02:30:13;;;;;;;14.93;9.75;;;;;;;1.27;81.36;93832.47;5029571;28;20033;-70
2022/12/15 02:32:45;;;;;;;16.27;10.40;;;;;;;1.39;80.74;93824.94;5033449;28;20044;-70
2022/12/15 02:35:50;;;;;;;13.77;8.98;;;;;;;1.25;81.18;93783.13;5033432;28;20147;-71
2022/12/15 02:38:33;;;;;;;15.40;9.10;;;;;;;1.20;80.91;93803.06;5020251;28;20047;-71
2022/12/15 02:40:59;;;;;;;14.25;9.63;;;;;;;1.23;81.64;93802.88;5047810;28;20033;-70
2022/12/15 02:43:25;;;;;;;12.30;9.32;;;;;;;1.17;81.91;93792.19;5018137;28;20041;-70
2022/12/15 02:46:17;;;;;;;13.88;9.20;;;;;;;1.18;81.93;93809.19;5022344;28;20034;-70
2022/12/15 02:48:47;;;;;;;15.07;10.75;;;;;;;1.16;81.51;93846.84;5030583;28;20034;-71
2022/12/15 02:51:18;;;;;;;16.08;10.35;;;;;;;1.23;81.52;93825.91;5038166;28;20025;-70
2022/12/15 02:54:05;;;;;;;12.77;8.13;;;;;;;1.29;81.77;93884.38;5049309;28;20044;-71
2022/12/15 02:56:45;;;;;;;14.40;10.27;;;;;;;1.24;82.01;93832.66;5039802;28;20495;-71
2022/12/15 02:59:20;;;;;;;14.73;10.00;;;;;;;1.25;81.79;93874.41;5046806;28;20060;-71
2022/12/15 03:01:56;;;;;;;16.10;10.95;;;;;;;1.34;81.95;93884.09;5029357;28;20416;-70
2022/12/15 03:04:22;;;;;;;13.10;9.40;;;;;;;1.43;81.41;93905.75;5029073;28;20106;-71
2022/12/15 03:06:57;;;;;;;14.00;9.27;;;;;;;1.39;82.05;93871.00;5029203;28;20603;-71
2022/12/15 03:09:22;;;;;;;12.98;8.55;;;;;;;1.49;81.77;93887.44;5012765;28;20025;-71
2022/12/15 03:11:48;;;;;;;14.90;9.15;;;;;;;1.51;80.98;93855.72;5013407;28;20095;-71
2022/12/15 03:14:13;;;;;;;15.18;9.35;;;;;;;1.53;81.20;93881.19;5019349;28;20028;-70
2022/12/15 03:16:39;;;;;;;19.33;14.25;;;;;;;1.46;81.19;93885.91;5029271;28;20099;-71
2022/12/15 03:19:04;;;;;;;16.75;10.10;;;;;;;1.44;81.52;93874.09;5031139;28;20036;-71
2022/12/15 03:21:29;;;;;;;15.07;10.60;;;;;;;1.50;81.75;93858.34;5029322;28;20045;-71
2022/12/15 03:23:55;;;;;;;15.65;10.52;;;;;;;1.37;81.94;93880.53;5031096;28;20034;-70
2022/12/15 03:26:20;;;;;;;16.42;11.20;;;;;;;1.46;81.98;93878.22;5043858;28;20026;-71
2022/12/15 03:28:46;;;;;;;15.77;11.27;;;;;;;1.42;81.57;93897.25;5044796;28;20044;-71
2022/12/15 03:31:11;;;;;;;16.58;10.43;;;;;;;1.32;82.03;93853.47;5032481;28;20465;-71
2022/12/15 03:33:37;;;;;;;13.57;9.85;;;;;;;1.32;81.49;93879.06;5048423;28;20036;-71
2022/12/15 03:36:03;;;;;;;14.23;9.65;;;;;;;1.41;81.37;93894.78;5048973;28;20041;-70
2022/12/15 03:38:28;;;;;;;12.63;8.80;;;;;;;1.36;81.27;93882.25;5032208;28;20052;-71
2022/12/15 03:40:54;;;;;;;13.52;9.25;;;;;;;1.23;81.89;93866.84;5052315;28;20479;-71
2022/12/15 03:43:19;;;;;;;13.90;9.57;;;;;;;1.24;81.72;93852.31;5053119;28;20521;-71
2022/12/15 03:45:45;;;;;;;14.95;10.07;;;;;;;1.33;81.68;93882.44;5035856;28;20039;-71
2022/12/15 03:48:10;;;;;;;13.85;8.80;;;;;;;1.36;81.96;93907.03;5034254;28;20075;-70
2022/12/15 03:50:36;;;;;;;15.77;9.00;;;;;;;1.32;81.40;93891.88;5033892;28;20049;-71
2022/12/15 03:53:02;;;;;;;13.98;9.57;;;;;;;1.33;81.69;93873.03;5018948;28;20037;-70
2022/12/15 03:55:27;;;;;;;13.90;8.60;;;;;;;1.46;81.28;93929.41;5035551;28;20507;-71
2022/12/15 03:57:53;;;;;;;13.57;8.88;;;;;;;1.45;80.61;93916.69;5027046;28;20187;-71
2022/12/15 04:00:19;;;;;;;15.32;9.52;;;;;;;1.41;80.80;93907.56;5015839;28;20065;-71
2022/12/15 04:02:45;;;;;;;12.15;8.43;;;;;;;1.37;81.27;93929.97;5033542;28;20029;-71
2022/12/15 04:05:27;;;;;;;13.23;9.10;;;;;;;1.43;80.95;93928.78;5032809;28;20116;-71
2022/12/15 04:07:53;;;;;;;11.82;8.05;;;;;;;1.36;80.88;93930.88;5031851;28;20095;-71
2022/12/15 04:10:19;;;;;;;14.35;9.75;;;;;;;1.46;81.02;93954.19;5015531;28;20080;-71
2022/12/15 04:12:44;;;;;;;15.45;9.93;;;;;;;1.39;81.19;93947.78;5032561;28;20156;-72
2022/12/15 04:15:10;;;;;;;14.55;9.02;;;;;;;1.47;81.04;93961.75;5033150;28;20038;-72
2022/12/15 04:17:35;;;;;;;15.60;10.05;;;;;;;1.45;81.63;93975.56;5032989;28;20030;-70
2022/12/15 04:20:10;;;;;;;13.82;9.00;;;;;;;1.45;81.40;93981.53;5033443;28;20038;-70
2022/12/15 04:22:40;;;;;;;13.32;9.13;;;;;;;1.46;81.51;93969.53;5016860;28;20025;-70
2022/12/15 05:33:25;;;;;;;66.45;33.00;;;;;;;1.68;82.34;94067.19;5044923;28;20086;-70
2022/12/15 05:35:51;;;;;;;22.63;14.30;;;;;;;1.60;82.20;94056.56;5041977;28;20033;-71
2022/12/15 05:38:17;;;;;;;19.95;12.55;;;;;;;1.56;81.87;94055.09;5051114;28;20045;-70
2022/12/15 05:40:42;;;;;;;17.63;11.55;;;;;;;1.69;81.78;94053.44;5050260;28;20037;-71
2022/12/15 05:43:08;;;;;;;21.95;13.38;;;;;;;1.61;81.87;94086.38;5033390;28;20044;-71
2022/12/15 05:45:33;;;;;;;22.10;13.20;;;;;;;1.68;81.84;94085.09;5051562;28;20029;-71
2022/12/15 05:47:59;;;;;;;22.27;13.50;;;;;;;1.74;81.50;94089.84;5026205;28;20479;-71
2022/12/15 05:50:24;;;;;;;20.65;13.90;;;;;;;1.69;81.99;94097.00;5038587;28;20052;-71
2022/12/15 05:52:50;;;;;;;22.70;13.45;;;;;;;1.86;81.44;94103.66;5034017;28;20037;-71
2022/12/15 05:55:16;;;;;;;20.35;12.65;;;;;;;1.83;81.19;94116.66;5031051;28;20041;-71
2022/12/15 05:57:41;;;;;;;21.02;12.68;;;;;;;1.85;81.31;94129.38;5017460;28;20065;-72
2022/12/15 06:00:07;;;;;;;18.98;12.13;;;;;;;1.92;80.82;94135.78;5031404;28;20087;-71
2022/12/15 06:02:33;;;;;;;24.35;14.75;;;;;;;1.92;80.70;94135.78;5041885;28;20064;-72
2022/12/15 06:04:58;;;;;;;24.23;14.90;;;;;;;1.99;80.31;94142.19;5041179;28;20568;-72
2022/12/15 06:07:24;;;;;;;21.10;13.52;;;;;;;1.91;79.96;94129.81;5049662;28;20027;-72
2022/12/15 06:09:49;;;;;;;18.45;12.40;;;;;;;1.98;80.02;94153.34;5040868;28;20056;-71
2022/12/15 06:12:15;;;;;;;20.23;12.98;;;;;;;1.81;79.56;94123.59;5039550;28;20052;-71
2022/12/15 06:14:41;;;;;;;18.75;12.32;;;;;;;2.05;79.67;94157.19;5045035;28;20048;-71
2022/12/15 06:17:06;;;;;;;18.65;13.07;;;;;;;2.00;79.89;94160.00;5038695;28;20423;-72
2022/12/15 06:19:32;;;;;;;20.08;12.93;;;;;;;2.09;79.85;94163.78;5041881;28;20029;-71
2022/12/15 06:21:57;;;;;;;21.08;13.27;;;;;;;2.08;79.84;94174.13;5036309;28;20029;-71
2022/12/15 06:24:23;;;;;;;18.70;11.80;;;;;;;2.09;79.87;94180.88;5046599;28;20466;-72
2022/12/15 06:26:49;;;;;;;19.50;12.73;;;;;;;2.07;79.85;94169.91;5039370;28;20455;-72
2022/12/15 06:29:14;;;;;;;17.02;12.07;;;;;;;2.09;79.41;94189.41;5046567;28;20033;-72
2022/12/15 06:31:40;;;;;;;20.08;13.32;;;;;;;2.07;79.63;94173.28;5022597;28;20030;-72
2022/12/15 06:34:07;;;;;;;18.33;12.32;;;;;;;2.06;79.75;94179.31;5041458;28;20033;-71
2022/12/15 06:36:33;;;;;;;20.45;13.75;;;;;;;2.03;79.68;94181.25;5027282;28;20107;-71
2022/12/15 06:38:59;;;;;;;20.10;13.15;;;;;;;2.03;79.87;94181.25;5028554;28;20033;-71
2022/12/15 06:41:25;;;;;;;17.73;12.45;;;;;;;2.06;79.84;94193.88;5028060;28;20034;-71
2022/12/15 06:43:56;;;;;;;19.95;13.55;;;;;;;2.09;79.58;94207.34;5028305;28;20083;-72
2022/12/15 06:46:22;;;;;;;19.40;12.90;;;;;;;2.15;79.69;94201.03;5040651;28;20056;-72
2022/12/15 06:48:48;;;;;;;20.23;12.75;;;;;;;2.02;80.13;94203.50;5045603;28;20033;-72
2022/12/15 06:51:14;;;;;;;24.55;15.35;;;;;;;2.04;79.52;94196.53;5028340;28;20033;-71
2022/12/15 06:53:40;;;;;;;21.15;13.07;;;;;;;2.08;80.26;94215.13;5041705;28;20039;-72
2022/12/15 06:56:07;;;;;;;19.98;12.63;;;;;;;2.06;80.47;94193.88;5047618;28;20110;-72
2022/12/15 06:58:33;;;;;;;23.00;13.68;;;;;;;2.18;80.17;94204.22;5023134;28;20127;-72
2022/12/15 07:00:58;;;;;;;20.35;12.75;;;;;;;2.24;79.85;94208.16;5029197;28;20129;-71
2022/12/15 07:03:24;;;;;;;23.23;13.40;;;;;;;2.17;80.05;94204.31;5013100;28;20506;-72
2022/12/15 07:06:03;;;;;;;24.05;14.27;;;;;;;2.27;80.54;94225.09;5037670;28;20120;-71
2022/12/15 07:08:28;;;;;;;20.65;13.52;;;;;;;2.13;80.46;94208.78;5034979;28;20024;-71
2022/12/15 07:10:57;;;;;;;22.23;13.95;;;;;;;2.37;80.42;94228.78;5022863;28;20040;-71
2022/12/15 07:13:22;;;;;;;36.53;18.35;;;;;;;2.42;79.99;94219.88;5038826;28;20557;-71
2022/12/15 07:15:48;;;;;;;53.78;22.65;;;;;;;2.49;80.05;94234.91;5041749;28;20037;-71
2022/12/15 07:18:15;;;;;;;44.40;21.30;;;;;;;2.39;80.31;94238.00;5041628;28;20028;-71
2022/12/15 07:20:40;;;;;;;47.65;22.17;;;;;;;2.48;80.19;94236.63;5021172;28;20033;-71
2022/12/15 07:23:08;;;;;;;39.85;20.20;;;;;;;2.56;80.06;94238.72;5043570;28;20037;-72
2022/12/15 07:25:37;;;;;;;104.72;39.13;;;;;;;2.54;80.25;94249.09;5048788;28;20457;-71
2022/12/15 07:28:03;;;;;;;73.93;31.48;;;;;;;2.67;79.61;94252.56;5036114;28;20132;-73
2022/12/15 07:30:28;;;;;;;67.65;28.90;;;;;;;2.87;79.48;94266.72;5018908;28;20580;-70
2022/12/15 07:32:54;;;;;;;37.05;19.58;;;;;;;2.85;79.35;94257.47;5019117;28;20028;-72
2022/12/15 07:35:19;;;;;;;26.83;17.20;;;;;;;2.82;79.36;94234.59;5026266;28;20045;-72
2022/12/15 07:37:45;;;;;;;26.77;16.15;;;;;;;3.00;79.29;94264.22;5040874;28;20024;-72
2022/12/15 07:40:10;;;;;;;23.05;15.05;;;;;;;3.05;79.29;94267.31;5038618;28;20048;-71
2022/12/15 07:42:36;;;;;;;19.67;13.23;;;;;;;3.11;79.09;94260.97;5033305;28;20026;-72
2022/12/15 07:45:02;;;;;;;19.80;13.05;;;;;;;3.16;79.22;94258.16;5036065;28;20491;-72
2022/12/15 07:47:28;;;;;;;20.10;13.77;;;;;;;3.31;78.50;94262.28;5028616;28;20060;-72
2022/12/15 07:49:53;;;;;;;30.02;18.80;;;;;;;3.27;78.18;94266.00;5031155;28;20076;-72
2022/12/15 07:52:19;;;;;;;29.58;20.60;;;;;;;3.28;78.38;94270.19;5020826;28;20048;-72
2022/12/15 07:54:44;;;;;;;30.17;18.83;;;;;;;3.31;78.70;94270.00;5040150;28;20408;-72
2022/12/15 07:57:10;;;;;;;42.72;23.30;;;;;;;3.38;78.55;94265.31;5050286;28;20276;-72
2022/12/15 07:59:35;;;;;;;32.88;21.13;;;;;;;3.45;78.02;94280.22;5050526;28;20024;-72
2022/12/15 08:02:02;;;;;;;25.13;17.20;;;;;;;3.55;78.40;94286.44;5033670;28;20025;-72
2022/12/15 08:04:28;;;;;;;32.88;20.05;;;;;;;3.63;77.75;94292.84;5032211;28;20396;-72
2022/12/15 08:06:54;;;;;;;29.20;18.70;;;;;;;3.54;78.00;94284.78;5032979;28;20075;-72
2022/12/15 08:09:19;;;;;;;23.60;15.38;;;;;;;3.64;78.26;94308.13;5049983;28;20060;-72
2022/12/15 08:11:45;;;;;;;20.42;13.57;;;;;;;3.69;78.04;94308.66;5045038;28;20118;-72
2022/12/15 08:14:11;;;;;;;20.13;13.40;;;;;;;3.64;77.89;94308.13;5049988;28;20040;-72
2022/12/15 08:16:36;;;;;;;19.08;13.05;;;;;;;3.74;77.57;94298.94;5033531;28;20415;-72
2022/12/15 08:19:04;;;;;;;21.60;14.27;;;;;;;3.79;77.47;94298.63;5033097;28;20028;-73
2022/12/15 08:21:30;;;;;;;43.35;23.05;;;;;;;3.82;77.23;94308.72;5049729;28;20522;-71
2022/12/15 08:23:56;;;;;;;50.88;28.15;;;;;;;3.81;77.52;94307.06;5050993;28;20406;-71
2022/12/15 08:26:22;;;;;;;39.60;23.58;;;;;;;3.79;77.73;94308.91;5031765;28;20037;-72
2022/12/15 08:28:47;;;;;;;30.63;17.63;;;;;;;3.80;77.77;94310.56;5050632;28;20021;-72
2022/12/15 08:31:20;;;;;;;45.22;28.42;;;;;;;3.79;78.52;94319.19;5050805;28;20083;-72
2022/12/15 08:33:45;;;;;;;38.45;24.27;;;;;;;3.73;78.32;94329.84;5035410;28;20498;-72
2022/12/15 08:36:12;;;;;;;17.95;12.18;;;;;;;3.83;78.46;94323.19;5051563;28;20037;-71
2022/12/15 08:38:38;;;;;;;21.45;15.32;;;;;;;3.82;78.67;94324.13;5051437;28;20021;-72
2022/12/15 08:41:11;;;;;;;23.67;15.52;;;;;;;3.89;78.85;94330.50;5051390;28;20036;-72
2022/12/15 08:43:36;;;;;;;31.35;20.42;;;;;;;4.01;78.58;94336.59;5035073;28;20029;-72
2022/12/15 08:46:03;;;;;;;30.80;20.25;;;;;;;3.95;78.26;94326.72;5034587;28;20071;-72
2022/12/15 08:48:28;;;;;;;29.00;18.55;;;;;;;4.07;78.21;94332.81;5051286;28;20032;-72
2022/12/15 08:50:54;;;;;;;27.88;18.02;;;;;;;4.00;77.98;94330.63;5052662;28;20037;-72
2022/12/15 08:53:20;;;;;;;27.13;17.67;;;;;;;4.11;77.75;94342.00;5051044;28;20124;-72
2022/12/15 08:55:46;;;;;;;24.35;16.35;;;;;;;4.12;78.33;94339.28;5034650;28;20033;-72
2022/12/15 08:58:11;;;;;;;30.55;19.92;;;;;;;4.09;78.37;94344.66;5051030;28;20044;-72
2022/12/15 09:00:36;;;;;;;45.72;25.95;;;;;;;4.06;78.71;94341.44;5034235;28;20029;-72
2022/12/15 09:03:02;;;;;;;55.47;33.03;;;;;;;4.07;78.98;94328.50;5050773;28;20025;-72
2022/12/15 09:05:27;;;;;;;63.25;36.97;;;;;;;4.14;78.54;94329.75;5017798;28;20063;-72
2022/12/15 09:07:57;;;;;;;65.85;37.85;;;;;;;4.17;78.58;94333.88;5050727;28;20036;-72
2022/12/15 09:10:23;;;;;;;46.45;28.20;;;;;;;4.16;78.75;94337.38;5050904;28;20037;-72
2022/12/15 09:12:49;;;;;;;39.17;23.52;;;;;;;4.22;78.88;94337.78;5050674;28;20479;-72
2022/12/15 09:15:14;;;;;;;34.10;20.60;;;;;;;4.22;78.52;94340.34;5051841;28;20044;-72
2022/12/15 09:17:40;;;;;;;27.38;17.75;;;;;;;4.20;78.14;94319.06;5051778;28;20104;-72
2022/12/15 09:20:07;;;;;;;32.88;22.58;;;;;;;4.10;78.89;94318.03;5050540;28;20036;-72
2022/12/15 09:22:33;;;;;;;38.63;26.00;;;;;;;4.18;79.17;94343.22;5050454;28;20554;-72
2022/12/15 09:24:58;;;;;;;49.28;31.90;;;;;;;4.25;79.15;94318.75;5050484;28;20052;-72
2022/12/15 09:27:24;;;;;;;49.58;28.67;;;;;;;4.27;79.45;94337.50;5051882;28;20475;-72
2022/12/15 09:29:49;;;;;;;47.50;30.05;;;;;;;4.20;79.92;94343.94;5033712;28;20473;-72
2022/12/15 09:32:15;;;;;;;44.28;29.73;;;;;;;4.22;79.79;94347.25;5033681;28;20423;-72
2022/12/15 09:34:40;;;;;;;46.00;29.33;;;;;;;4.24;79.72;94337.69;5050363;28;20048;-72
2022/12/15 09:37:06;;;;;;;33.15;21.38;;;;;;;4.26;79.14;94351.25;5033423;28;20044;-72
2022/12/15 09:39:31;;;;;;;30.42;20.20;;;;;;;4.22;78.95;94358.34;5050183;28;20035;-72
2022/12/15 09:42:00;;;;;;;29.67;20.42;;;;;;;4.30;78.20;94334.72;5050104;28;20025;-72
2022/12/15 09:44:26;;;;;;;31.48;20.70;;;;;;;4.30;78.07;94342.44;5033422;28;20483;-72
2022/12/15 09:47:07;;;;;;;30.88;20.35;;;;;;;4.39;78.04;94346.16;5017081;28;20036;-72
2022/12/15 09:49:51;;;;;;;29.40;19.55;;;;;;;4.42;78.05;94349.31;5051323;28;20064;-72
2022/12/15 09:52:46;;;;;;;23.40;16.50;;;;;;;4.44;77.85;94341.53;5049960;28;20133;-71
2022/12/15 09:55:20;;;;;;;28.58;17.40;;;;;;;4.33;78.49;94355.09;5050864;28;20033;-72
2022/12/15 09:57:53;;;;;;;28.02;19.75;;;;;;;4.33;78.61;94355.09;5051209;28;20049;-72
2022/12/15 10:00:24;;;;;;;34.58;23.35;;;;;;;4.26;78.60;94333.25;5049958;28;20171;-72
2022/12/15 10:02:49;;;;;;;40.92;26.42;;;;;;;4.42;78.51;94354.47;5049757;28;20029;-72
2022/12/15 10:05:36;;;;;;;41.08;27.02;;;;;;;4.32;79.20;94347.47;5049763;28;20517;-72
2022/12/15 10:08:02;;;;;;;48.20;30.00;;;;;;;4.26;79.05;94338.41;5050911;28;20059;-72
2022/12/15 10:10:53;;;;;;;51.88;30.73;;;;;;;4.36;78.64;94336.06;5033061;28;20064;-72
2022/12/15 10:13:22;;;;;;;48.83;29.95;;;;;;;4.22;78.96;94321.53;5049909;28;20048;-72
2022/12/15 10:16:29;;;;;;;45.28;27.42;;;;;;;4.40;77.70;94335.78;5033510;28;20123;-72
2022/12/15 10:19:02;;;;;;;44.42;28.23;;;;;;;4.35;78.25;94340.38;5050591;28;20582;-72
2022/12/15 10:21:27;;;;;;;58.92;31.17;;;;;;;4.38;77.97;94340.19;5049782;28;20495;-72
2022/12/15 10:23:56;;;;;;;53.40;32.08;;;;;;;4.38;78.28;94332.47;5049522;28;20025;-72
2022/12/15 10:26:24;;;;;;;68.93;38.33;;;;;;;4.34;78.29;94322.47;5033103;28;20103;-72
2022/12/15 10:29:02;;;;;;;53.88;33.20;;;;;;;4.37;78.52;94335.94;5049526;28;20083;-72
2022/12/15 10:31:56;;;;;;;52.45;31.05;;;;;;;4.41;78.68;94341.72;5051142;28;20041;-72
2022/12/15 10:34:27;;;;;;;42.25;25.38;;;;;;;4.46;78.48;94363.66;5049493;28;20055;-72
2022/12/15 10:36:53;;;;;;;42.30;25.27;;;;;;;4.35;78.90;94358.38;5050672;28;20036;-72
2022/12/15 10:39:19;;;;;;;48.97;30.92;;;;;;;4.32;79.37;94344.88;5050559;28;20033;-72
2022/12/15 10:41:45;;;;;;;41.78;25.23;;;;;;;4.36;79.15;94362.59;5049561;28;20029;-72
2022/12/15 10:44:24;;;;;;;35.75;24.60;;;;;;;4.48;78.89;94376.41;5049430;28;20029;-72
2022/12/15 10:46:56;;;;;;;38.47;25.92;;;;;;;4.43;79.00;94345.00;5049376;28;20586;-72
2022/12/15 10:49:22;;;;;;;43.83;28.58;;;;;;;4.50;79.34;94343.69;5052256;28;20567;-72
2022/12/15 10:51:56;;;;;;;39.10;25.73;;;;;;;4.53;79.35;94345.22;5020378;28;20140;-72
2022/12/15 10:54:21;;;;;;;44.35;25.85;;;;;;;4.55;79.24;94363.97;5036919;28;20414;-72
2022/12/15 10:56:53;;;;;;;36.92;23.83;;;;;;;4.46;79.47;94361.06;5036532;28;20053;-72
2022/12/15 10:59:33;;;;;;;38.03;24.45;;;;;;;4.39;79.94;94364.97;5036679;28;20020;-72
2022/12/15 11:02:22;;;;;;;35.33;22.25;;;;;;;4.51;79.84;94367.66;5038001;28;20553;-71
2022/12/15 11:04:57;;;;;;;36.22;22.17;;;;;;;4.62;79.34;94360.03;5054308;28;20032;-72
2022/12/15 11:07:22;;;;;;;30.13;20.33;;;;;;;4.59;79.18;94357.69;5053081;28;20031;-72
2022/12/15 11:09:48;;;;;;;32.03;19.95;;;;;;;4.67;79.08;94361.38;5054318;28;20037;-72
2022/12/15 11:15:02;;;;;;;38.67;23.92;;;;;;;4.68;79.47;94345.03;5053562;28;20476;-72
2022/12/15 11:17:36;;;;;;;42.40;26.23;;;;;;;4.79;79.54;94364.06;5054138;28;20021;-72
2022/12/15 11:20:05;;;;;;;33.97;21.30;;;;;;;4.80;79.73;94352.88;5021033;28;20056;-72
2022/12/15 11:22:39;;;;;;;33.47;22.17;;;;;;;4.89;79.36;94365.91;5036503;28;20029;-72
2022/12/15 11:25:33;;;;;;;41.47;23.00;;;;;;;4.94;79.03;94355.31;5036171;28;20048;-72
2022/12/15 11:27:59;;;;;;;37.83;23.42;;;;;;;4.79;79.25;94330.59;5052976;28;20055;-72
2022/12/15 11:30:37;;;;;;;46.00;25.48;;;;;;;5.03;79.18;94346.16;5036221;28;20491;-71
2022/12/15 11:33:03;;;;;;;39.85;24.35;;;;;;;5.02;79.69;94349.66;5036374;28;20036;-72
2022/12/15 11:35:56;;;;;;;66.18;36.03;;;;;;;5.01;80.16;94351.38;5052690;28;20534;-72
2022/12/15 11:38:40;;;;;;;40.28;24.98;;;;;;;5.08;79.96;94377.56;5053839;28;20100;-72
2022/12/15 11:41:31;;;;;;;53.72;32.88;;;;;;;5.07;80.01;94352.72;5054062;28;20067;-72
2022/12/15 11:44:09;;;;;;;43.70;27.58;;;;;;;5.14;79.98;94377.13;5049683;28;20044;-72
2022/12/15 11:46:47;;;;;;;42.03;25.77;;;;;;;5.20;79.46;94375.88;5035972;28;20530;-72
2022/12/15 11:49:25;;;;;;;41.60;25.33;;;;;;;5.28;78.73;94369.28;5053664;28;20029;-71
2022/12/15 11:52:33;;;;;;;56.67;30.73;;;;;;;5.25;79.16;94379.78;5052225;28;20032;-71
2022/12/15 11:55:00;;;;;;;46.20;26.15;;;;;;;5.29;78.93;94373.50;5034624;28;20041;-72
2022/12/15 11:58:10;;;;;;;44.55;27.35;;;;;;;5.30;78.47;94372.56;5049060;28;20049;-72
2022/12/15 12:00:41;;;;;;;46.97;26.30;;;;;;;5.32;78.40;94365.56;5038258;28;20061;-71
2022/12/15 12:03:18;;;;;;;39.72;24.60;;;;;;;5.43;78.31;94377.69;5052167;28;20036;-72
2022/12/15 12:05:46;;;;;;;61.45;30.98;;;;;;;5.45;77.96;94370.69;5052255;28;20033;-72
2022/12/15 12:08:21;;;;;;;51.42;30.42;;;;;;;5.33;78.95;94384.41;5051865;28;20480;-72
2022/12/15 12:11:20;;;;;;;50.78;30.15;;;;;;;5.41;78.42;94373.59;5053604;28;20517;-72
2022/12/15 12:13:54;;;;;;;41.85;26.48;;;;;;;5.43;78.31;94388.00;5052409;28;20036;-72
2022/12/15 12:16:47;;;;;;;43.88;26.67;;;;;;;5.41;78.49;94376.16;5053446;28;20041;-71
2022/12/15 12:19:19;;;;;;;85.25;44.45;;;;;;;5.38;78.69;94400.38;5053105;28;20032;-72
2022/12/15 12:21:44;;;;;;;;;;;;;;;5.40;78.71;94372.75;5052429;28;20489;-72
2022/12/15 12:24:20;;;;;;;41.90;27.50;;;;;;;5.23;78.51;94391.13;5052887;28;19912;-72
2022/12/15 12:27:06;;;;;;;42.95;26.67;;;;;;;5.15;78.98;94369.31;5035567;28;20538;-72
2022/12/15 12:29:46;;;;;;;45.67;27.33;;;;;;;5.20;79.45;94394.72;5041328;28;20048;-72
2022/12/15 12:32:23;;;;;;;68.03;41.53;;;;;;;5.09;79.66;94395.47;5018634;28;20384;-71
2022/12/15 12:35:06;;;;;;;61.95;36.63;;;;;;;5.19;79.96;94400.81;5051709;28;20126;-71
2022/12/15 12:37:38;;;;;;;51.88;32.80;;;;;;;5.29;79.23;94416.44;5035504;28;20527;-72
2022/12/15 12:40:06;;;;;;;51.22;31.20;;;;;;;5.01;79.27;94376.31;5052708;28;20037;-72
2022/12/15 12:42:36;;;;;;;47.58;30.58;;;;;;;5.19;79.26;94411.13;5035025;28;20560;-72
2022/12/15 12:45:02;;;;;;;49.13;31.33;;;;;;;5.02;79.77;94403.72;5035160;28;20037;-72
2022/12/15 12:47:35;;;;;;;47.67;29.48;;;;;;;5.20;79.45;94417.91;5034704;28;20078;-72
2022/12/15 12:50:13;;;;;;;43.83;29.52;;;;;;;5.22;79.52;94426.38;5034848;28;20033;-72
2022/12/15 12:52:39;;;;;;;41.22;25.63;;;;;;;5.25;79.15;94420.19;5035940;28;20546;-71
2022/12/15 12:55:10;;;;;;;43.17;27.60;;;;;;;5.28;79.25;94422.53;5034449;28;20041;-72
2022/12/15 12:57:39;;;;;;;42.88;27.85;;;;;;;5.26;78.61;94416.66;5052529;28;20558;-71
2022/12/15 13:00:27;;;;;;;38.80;24.95;;;;;;;5.25;79.11;94433.88;5034591;28;20062;-72
2022/12/15 13:03:28;;;;;;;43.65;26.50;;;;;;;5.26;78.50;94419.25;5052160;28;20515;-71
2022/12/15 13:05:54;;;;;;;38.83;25.88;;;;;;;5.28;78.47;94431.09;5033236;28;20041;-72
2022/12/15 13:08:46;;;;;;;40.13;25.85;;;;;;;5.27;78.33;94431.22;5051541;28;20494;-72
2022/12/15 13:11:43;;;;;;;41.00;27.85;;;;;;;5.25;78.42;94438.22;5050608;28;20116;-71
2022/12/15 13:14:13;;;;;;;45.38;28.08;;;;;;;5.22;78.74;94438.41;5050970;28;20025;-71
2022/12/15 13:16:38;;;;;;;46.47;30.35;;;;;;;5.13;79.36;94438.13;5050681;28;20055;-71
2022/12/15 13:19:05;;;;;;;48.70;31.27;;;;;;;5.24;79.90;94447.69;5050846;28;20025;-71
2022/12/15 13:21:40;;;;;;;44.30;30.10;;;;;;;5.21;79.40;94429.03;5050841;28;20082;-72
2022/12/15 13:24:25;;;;;;;29.15;19.52;;;;;;;5.18;79.89;94435.19;5051747;28;20036;-72
2022/12/15 13:26:51;;;;;;;31.90;21.30;;;;;;;5.26;79.58;94447.56;5035382;28;20033;-72
2022/12/15 13:29:18;;;;;;;30.13;20.42;;;;;;;5.21;79.54;94435.03;5034219;28;20207;-72
2022/12/15 13:31:46;;;;;;;27.08;17.83;;;;;;;5.14;78.91;94416.56;5050738;28;20067;-72
2022/12/15 13:34:35;;;;;;;26.60;17.00;;;;;;;5.30;78.66;94444.69;5034005;28;20036;-72
2022/12/15 13:37:01;;;;;;;26.17;17.77;;;;;;;5.41;78.11;94456.03;5017370;28;20504;-72
2022/12/15 13:39:26;;;;;;;27.73;19.15;;;;;;;5.38;78.60;94450.16;5050387;28;20028;-71
2022/12/15 13:41:52;;;;;;;30.90;19.65;;;;;;;5.35;79.12;94444.41;5051594;28;20074;-72
2022/12/15 13:44:25;;;;;;;27.33;18.85;;;;;;;5.30;78.78;94452.44;5051435;28;20057;-72
2022/12/15 13:46:52;;;;;;;27.30;18.30;;;;;;;5.34;78.21;94440.16;5050383;28;20036;-72
2022/12/15 13:49:32;;;;;;;29.45;19.02;;;;;;;5.32;77.84;94452.31;5033937;28;20025;-71
2022/12/15 13:52:03;;;;;;;24.90;16.85;;;;;;;5.27;77.79;94444.91;5034083;28;20037;-71
2022/12/15 13:54:34;;;;;;;27.27;16.35;;;;;;;5.28;78.10;94467.16;5050203;28;20029;-72
2022/12/15 13:57:17;;;;;;;24.27;15.52;;;;;;;5.08;78.27;94435.03;5016996;28;20089;-71
2022/12/15 13:59:49;;;;;;;24.10;15.10;;;;;;;5.21;77.96;94454.78;5033510;28;20503;-72
2022/12/15 14:02:31;;;;;;;24.40;16.15;;;;;;;5.06;78.15;94457.47;5049984;28;20112;-72
2022/12/15 14:05:16;;;;;;;25.48;15.63;;;;;;;5.08;78.16;94462.53;5033781;28;20036;-72
2022/12/15 14:07:48;;;;;;;20.50;14.68;;;;;;;5.02;78.12;94481.78;5051124;28;20491;-72